createdAt,value
2022-10-05T00:01:44.038Z,5.23
2022-10-05T00:05:12.973Z,4.20
2022-10-05T00:08:30.030Z,4.45
2022-10-05T00:11:49.053Z,4.40
2022-10-05T00:14:52.960Z,6.13
2022-10-05T00:18:11.969Z,4.20
2022-10-05T00:21:28.126Z,3.85
2022-10-05T00:24:59.917Z,4.03
2022-10-05T00:28:16.073Z,5.03
2022-10-05T00:31:47.073Z,4.10
2022-10-05T00:35:03.018Z,4.05
2022-10-05T00:38:19.160Z,2.87
2022-10-05T00:41:36.981Z,4.30
2022-10-05T00:45:08.118Z,6.50
2022-10-05T00:48:36.207Z,5.50
2022-10-05T00:52:08.123Z,3.30
2022-10-05T00:55:24.163Z,3.75
2022-10-05T00:58:59.197Z,3.93
2022-10-05T01:02:15.158Z,3.57
2022-10-05T01:05:43.443Z,4.60
2022-10-05T01:09:01.195Z,5.20
2022-10-05T01:12:32.178Z,4.00
2022-10-05T01:16:04.562Z,3.43
2022-10-05T01:19:33.238Z,6.37
2022-10-05T01:22:50.262Z,4.45
2022-10-05T01:26:26.280Z,4.30
2022-10-05T01:29:44.268Z,4.45
2022-10-05T01:33:15.243Z,8.03
2022-10-05T01:36:31.213Z,3.97
2022-10-05T01:39:59.364Z,4.60
2022-10-05T01:43:30.358Z,4.43
2022-10-05T01:47:09.549Z,5.93
2022-10-05T01:50:46.890Z,4.00
2022-10-05T01:54:24.753Z,4.50
2022-10-05T01:57:59.037Z,4.15
2022-10-05T02:01:29.303Z,5.60
2022-10-05T02:05:02.927Z,9.83
2022-10-05T02:08:30.380Z,5.83
2022-10-05T02:11:58.465Z,4.70
2022-10-05T02:15:14.309Z,4.77
2022-10-05T02:18:45.577Z,4.80
2022-10-05T02:22:17.557Z,4.30
2022-10-05T02:25:48.415Z,5.33
2022-10-05T02:29:17.461Z,5.73
2022-10-05T02:32:45.593Z,7.63
2022-10-05T02:36:02.389Z,7.15
2022-10-05T02:39:34.463Z,5.97
2022-10-05T02:43:02.509Z,4.65
2022-10-05T02:46:30.603Z,5.07
2022-10-05T02:49:58.536Z,4.20
2022-10-05T02:53:14.425Z,5.65
2022-10-05T02:56:45.652Z,4.87
2022-10-05T03:00:13.526Z,3.57
2022-10-05T03:03:44.568Z,5.90
2022-10-05T03:07:15.802Z,4.50
2022-10-05T03:10:46.557Z,3.80
2022-10-05T03:14:18.519Z,6.80
2022-10-05T03:17:49.633Z,5.73
2022-10-05T03:21:17.476Z,5.47
2022-10-05T03:24:54.442Z,4.45
2022-10-05T03:28:11.695Z,4.17
2022-10-05T03:31:46.663Z,4.25
2022-10-05T03:35:14.667Z,5.63
2022-10-05T03:38:43.704Z,4.27
2022-10-05T03:42:11.719Z,4.07
2022-10-05T03:45:39.764Z,5.03
2022-10-05T03:49:11.650Z,4.50
2022-10-05T03:52:39.643Z,4.05
2022-10-05T03:56:07.015Z,11.60
2022-10-05T03:59:33.022Z,5.70
2022-10-05T04:02:57.095Z,5.55
2022-10-05T04:06:22.096Z,6.25
2022-10-05T04:09:46.039Z,5.57
2022-10-05T04:13:11.093Z,4.63
2022-10-05T04:16:35.071Z,5.40
2022-10-05T04:20:01.085Z,8.25
2022-10-05T04:23:27.078Z,5.10
2022-10-05T04:26:52.050Z,11.13
2022-10-05T04:30:16.083Z,5.35
2022-10-05T04:33:29.141Z,4.97
2022-10-05T04:36:53.121Z,5.33
2022-10-05T04:40:21.138Z,5.30
2022-10-05T04:43:45.167Z,6.90
2022-10-05T04:47:13.149Z,5.30
2022-10-05T04:50:40.183Z,5.30
2022-10-05T04:54:04.162Z,6.55
2022-10-05T04:57:17.200Z,5.20
2022-10-05T05:00:46.262Z,5.60
2022-10-05T05:04:14.263Z,6.35
2022-10-05T05:07:40.208Z,4.97
2022-10-05T05:11:06.215Z,5.57
2022-10-05T05:14:34.435Z,6.40
2022-10-05T05:18:01.231Z,6.35
2022-10-05T05:21:26.246Z,6.77
2022-10-05T05:24:51.249Z,5.70
2022-10-05T05:28:16.322Z,6.45
2022-10-05T05:31:42.321Z,6.47
2022-10-05T05:35:07.285Z,6.27
2022-10-05T05:38:37.299Z,7.63
2022-10-05T05:42:02.336Z,7.80
2022-10-05T05:45:27.330Z,6.57
2022-10-05T05:48:55.370Z,8.93
2022-10-05T05:52:07.319Z,6.30
2022-10-05T05:55:32.397Z,10.20
2022-10-05T05:58:56.385Z,8.47
2022-10-05T06:02:21.468Z,7.10
2022-10-05T06:05:51.384Z,6.65
2022-10-05T06:09:16.417Z,7.47
2022-10-05T06:12:41.415Z,7.30
2022-10-05T06:15:53.428Z,7.85
2022-10-05T06:19:20.416Z,5.65
2022-10-05T06:22:46.486Z,7.97
2022-10-05T06:26:14.637Z,9.90
2022-10-05T06:29:38.455Z,6.30
2022-10-05T06:33:09.523Z,6.25
2022-10-05T06:36:35.495Z,6.80
2022-10-05T06:40:04.472Z,6.35
2022-10-05T06:43:30.485Z,7.55
2022-10-05T06:46:56.522Z,9.15
2022-10-05T06:50:21.509Z,6.45
2022-10-05T06:53:49.548Z,6.37
2022-10-05T06:57:15.536Z,7.37
2022-10-05T07:00:40.606Z,7.00
2022-10-05T07:04:05.549Z,9.40
2022-10-05T07:07:30.562Z,5.65
2022-10-05T07:10:54.621Z,7.40
2022-10-05T07:14:30.604Z,6.67
2022-10-05T07:17:57.716Z,6.77
2022-10-05T07:21:21.619Z,7.45
2022-10-05T07:24:48.638Z,6.10
2022-10-05T07:28:13.690Z,5.53
2022-10-05T07:31:39.656Z,5.80
2022-10-05T07:35:04.702Z,6.63
2022-10-05T07:38:15.682Z,5.10
2022-10-05T07:41:39.653Z,6.90
2022-10-05T07:45:03.696Z,7.15
2022-10-05T07:48:29.691Z,5.80
2022-10-05T07:51:42.723Z,5.60
2022-10-05T07:55:08.737Z,5.60
2022-10-05T07:58:33.770Z,5.93
2022-10-05T08:01:57.741Z,7.10
2022-10-05T08:05:23.761Z,5.10
2022-10-05T08:08:36.741Z,6.83
2022-10-05T08:12:00.792Z,5.73
2022-10-05T08:15:13.772Z,9.50
2022-10-05T08:18:39.794Z,5.20
2022-10-05T08:21:54.788Z,5.63
2022-10-05T08:25:19.910Z,8.60
2022-10-05T08:28:32.881Z,7.57
2022-10-05T08:31:56.839Z,6.25
2022-10-05T08:35:08.826Z,4.40
2022-10-05T08:38:34.883Z,4.85
2022-10-05T08:42:05.903Z,4.57
2022-10-05T08:45:47.897Z,6.20
2022-10-05T08:49:05.898Z,4.40
2022-10-05T08:52:42.902Z,5.63
2022-10-05T08:55:58.942Z,5.33
2022-10-05T08:59:29.991Z,5.07
2022-10-05T09:02:43.968Z,4.87
2022-10-05T09:06:11.937Z,4.33
2022-10-05T09:09:33.055Z,3.35
2022-10-05T09:13:06.937Z,4.80
2022-10-05T09:16:24.988Z,3.43
2022-10-05T09:20:04.074Z,3.60
2022-10-05T09:23:19.021Z,3.13
2022-10-05T09:26:53.990Z,3.30
2022-10-05T09:30:12.047Z,3.63
2022-10-05T09:33:40.980Z,3.50
2022-10-05T09:36:59.061Z,3.57
2022-10-05T09:40:45.058Z,3.17
2022-10-05T09:44:10.016Z,3.05
2022-10-05T09:47:40.051Z,3.35
2022-10-05T09:50:57.065Z,3.60
2022-10-05T09:54:28.089Z,3.77
2022-10-05T09:57:48.134Z,3.10
2022-10-05T10:01:32.656Z,3.13
2022-10-05T10:04:44.123Z,3.10
2022-10-05T10:08:03.130Z,4.57
2022-10-05T10:11:36.139Z,3.00
2022-10-05T10:14:52.162Z,3.10
2022-10-05T10:18:26.186Z,3.50
2022-10-05T10:21:47.377Z,3.50
2022-10-05T10:25:15.187Z,2.60
2022-10-05T10:28:32.264Z,3.10
2022-10-05T10:32:02.198Z,3.37
2022-10-05T10:35:22.276Z,3.20
2022-10-05T10:38:57.197Z,4.20
2022-10-05T10:42:17.228Z,2.70
2022-10-05T10:45:44.232Z,2.93
2022-10-05T10:49:13.269Z,3.27
2022-10-05T10:52:42.270Z,2.23
2022-10-05T10:55:59.280Z,2.83
2022-10-05T10:59:34.321Z,2.20
2022-10-05T11:02:52.430Z,2.03
2022-10-05T11:06:27.322Z,2.47
2022-10-05T11:09:46.316Z,3.03
2022-10-05T11:13:26.363Z,2.47
2022-10-05T11:16:47.621Z,3.57
2022-10-05T11:20:16.366Z,2.93
2022-10-05T11:23:34.236Z,3.40
2022-10-05T11:27:01.356Z,4.43
2022-10-05T11:30:16.468Z,2.23
2022-10-05T11:33:47.404Z,2.20
2022-10-05T11:37:03.402Z,2.37
2022-10-05T11:40:44.427Z,2.27
2022-10-05T11:44:06.947Z,2.30
2022-10-05T11:47:30.476Z,4.67
2022-10-05T11:50:55.429Z,2.30
2022-10-05T11:54:20.467Z,2.60
2022-10-05T11:57:34.422Z,3.90
2022-10-05T12:00:58.503Z,2.50
2022-10-05T12:04:23.481Z,3.27
2022-10-05T12:07:37.525Z,2.35
2022-10-05T12:11:01.560Z,2.85
2022-10-05T12:14:15.529Z,1.90
2022-10-05T12:17:40.547Z,2.40
2022-10-05T12:20:53.498Z,4.87
2022-10-05T12:24:17.577Z,2.67
2022-10-05T12:27:29.557Z,2.37
2022-10-05T12:30:55.579Z,5.07
2022-10-05T12:34:07.586Z,2.43
2022-10-05T12:37:32.586Z,3.90
2022-10-05T12:40:46.611Z,2.20
2022-10-05T12:44:12.764Z,3.27
2022-10-05T12:47:26.635Z,2.20
2022-10-05T12:50:51.675Z,3.53
2022-10-05T12:54:05.658Z,1.97
2022-10-05T12:57:30.640Z,2.97
2022-10-05T13:00:42.744Z,1.70
2022-10-05T13:04:08.670Z,1.93
2022-10-05T13:07:25.716Z,2.03
2022-10-05T13:10:50.676Z,2.27
2022-10-05T13:14:04.737Z,1.97
2022-10-05T13:17:28.691Z,4.60
2022-10-05T13:20:42.713Z,1.90
2022-10-05T13:24:11.760Z,1.80
2022-10-05T13:27:23.724Z,3.43
2022-10-05T13:30:48.748Z,2.20
2022-10-05T13:34:11.761Z,1.90
2022-10-05T13:37:37.754Z,4.67
2022-10-05T13:40:49.782Z,2.00
2022-10-05T13:44:14.771Z,3.97
2022-10-05T13:47:26.808Z,3.67
2022-10-05T13:50:50.796Z,2.00
2022-10-05T13:54:04.808Z,1.80
2022-10-05T13:57:30.835Z,2.27
2022-10-05T14:00:42.811Z,1.87
2022-10-05T14:04:07.913Z,1.77
2022-10-05T14:07:19.888Z,1.83
2022-10-05T14:10:57.875Z,1.90
2022-10-05T14:14:09.890Z,2.30
2022-10-05T14:17:34.878Z,3.20
2022-10-05T14:20:47.911Z,2.00
2022-10-05T14:23:59.937Z,2.97
2022-10-05T14:27:16.935Z,3.83
2022-10-05T14:30:48.153Z,1.57
2022-10-05T14:33:55.937Z,1.80
2022-10-05T14:37:21.015Z,1.57
2022-10-05T14:40:45.994Z,1.50
2022-10-05T14:44:17.972Z,1.63
2022-10-05T14:47:37.036Z,1.70
2022-10-05T14:51:03.005Z,1.37
2022-10-05T14:54:21.010Z,3.15
2022-10-05T14:57:45.317Z,1.73
2022-10-05T15:00:59.133Z,2.10
2022-10-05T15:04:26.049Z,2.63
2022-10-05T15:07:39.062Z,3.67
2022-10-05T15:11:07.058Z,2.40
2022-10-05T15:14:19.083Z,1.70
2022-10-05T15:17:45.099Z,1.70
2022-10-05T15:20:58.153Z,1.67
2022-10-05T15:24:22.100Z,1.50
2022-10-05T15:27:35.154Z,2.27
2022-10-05T15:30:59.230Z,3.00
2022-10-05T15:34:13.152Z,1.70
2022-10-05T15:37:37.135Z,1.73
2022-10-05T15:40:49.158Z,3.00
2022-10-05T15:44:15.156Z,1.40
2022-10-05T15:47:28.168Z,2.13
2022-10-05T15:50:54.196Z,2.23
2022-10-05T15:54:08.208Z,1.90
2022-10-05T15:57:32.207Z,1.60
2022-10-05T16:00:44.202Z,2.70
2022-10-05T16:04:11.241Z,2.43
2022-10-05T16:07:30.950Z,1.70
2022-10-05T16:10:56.219Z,1.80
2022-10-05T16:14:08.294Z,1.40
2022-10-05T16:17:33.284Z,2.23
2022-10-05T16:20:47.331Z,1.60
2022-10-05T16:24:16.293Z,2.73
2022-10-05T16:27:28.364Z,2.70
2022-10-05T16:30:53.347Z,1.37
2022-10-05T16:34:07.314Z,1.67
2022-10-05T16:37:31.331Z,3.10
2022-10-05T16:40:46.441Z,1.70
2022-10-05T16:44:11.347Z,2.63
2022-10-05T16:47:27.239Z,2.23
2022-10-05T16:50:49.380Z,2.60
2022-10-05T16:54:01.380Z,2.00
2022-10-05T16:57:27.429Z,1.80
2022-10-05T17:00:43.408Z,4.23
2022-10-05T17:04:10.419Z,1.83
2022-10-05T17:07:25.788Z,2.13
2022-10-05T17:10:59.426Z,3.60
2022-10-05T17:14:17.432Z,2.40
2022-10-05T17:17:57.532Z,1.93
2022-10-05T17:21:11.491Z,1.60
2022-10-05T17:24:43.489Z,2.77
2022-10-05T17:27:58.550Z,2.13
2022-10-05T17:31:34.520Z,1.80
2022-10-05T17:34:49.517Z,1.60
2022-10-05T17:38:30.532Z,2.30
2022-10-05T17:41:43.550Z,1.87
2022-10-05T17:45:07.547Z,1.40
2022-10-05T17:48:21.621Z,4.53
2022-10-05T17:51:58.221Z,1.40
2022-10-05T17:55:38.535Z,1.63
2022-10-05T17:59:15.662Z,1.50
2022-10-05T18:02:37.378Z,1.57
2022-10-05T18:06:01.590Z,2.10
2022-10-05T18:09:13.656Z,1.20
2022-10-05T18:12:50.618Z,2.20
2022-10-05T18:16:05.675Z,5.33
2022-10-05T18:19:29.658Z,5.50
2022-10-05T18:22:51.619Z,1.33
2022-10-05T18:26:15.650Z,1.30
2022-10-05T18:29:27.658Z,2.83
2022-10-05T18:32:52.680Z,4.73
2022-10-05T18:36:06.753Z,1.00
2022-10-05T18:39:33.708Z,4.80
2022-10-05T18:42:45.736Z,2.03
2022-10-05T18:46:13.778Z,3.07
2022-10-05T18:49:28.732Z,6.70
2022-10-05T18:52:54.720Z,1.57
2022-10-05T18:56:08.766Z,1.30
2022-10-05T18:59:36.768Z,2.53
2022-10-05T19:02:48.859Z,2.60
2022-10-05T19:06:13.269Z,1.33
2022-10-05T19:09:26.769Z,1.83
2022-10-05T19:12:53.803Z,5.85
2022-10-05T19:16:06.869Z,1.40
2022-10-05T19:19:40.839Z,1.45
2022-10-05T19:22:53.869Z,2.17
2022-10-05T19:26:17.849Z,2.23
2022-10-05T19:29:31.875Z,1.80
2022-10-05T19:32:57.877Z,2.63
2022-10-05T19:36:11.896Z,5.15
2022-10-05T19:39:35.883Z,1.70
2022-10-05T19:42:50.914Z,2.73
2022-10-05T19:46:19.919Z,3.37
2022-10-05T19:49:32.953Z,1.57
2022-10-05T19:53:00.941Z,3.40
2022-10-05T19:56:12.921Z,1.50
2022-10-05T19:59:37.952Z,1.30
2022-10-05T20:02:51.977Z,1.20
2022-10-05T20:06:03.952Z,2.67
2022-10-05T20:09:16.093Z,1.93
2022-10-05T20:12:39.980Z,1.70
2022-10-05T20:15:57.586Z,2.20
2022-10-05T20:19:29.625Z,2.77
2022-10-05T20:22:49.079Z,1.80
2022-10-05T20:26:18.641Z,1.43
2022-10-05T20:29:33.062Z,2.60
2022-10-05T20:32:45.223Z,3.07
2022-10-05T20:35:58.120Z,1.67
2022-10-05T20:39:11.093Z,1.67
2022-10-05T20:42:23.105Z,3.80
2022-10-05T20:45:38.297Z,2.73
2022-10-05T20:48:38.137Z,1.77
2022-10-05T20:52:04.136Z,1.50
2022-10-05T20:55:05.118Z,1.55
2022-10-05T20:58:18.142Z,1.50
2022-10-05T21:01:31.312Z,4.73
2022-10-05T21:04:55.153Z,1.17
2022-10-05T21:08:09.162Z,1.27
2022-10-05T21:11:22.197Z,0.75
2022-10-05T21:14:22.143Z,0.70
2022-10-05T21:17:34.167Z,1.00
2022-10-05T21:20:34.214Z,1.20
2022-10-05T21:24:02.195Z,0.63
2022-10-05T21:27:02.224Z,1.03
2022-10-05T21:30:14.212Z,0.80
2022-10-05T21:33:14.259Z,1.07
2022-10-05T21:36:38.211Z,0.67
2022-10-05T21:39:51.258Z,0.83
2022-10-05T21:43:03.237Z,0.53
2022-10-05T21:46:15.334Z,0.80
2022-10-05T21:49:39.306Z,1.13
2022-10-05T21:52:39.307Z,0.50
2022-10-05T21:56:05.272Z,1.90
2022-10-05T21:59:17.305Z,1.35
2022-10-05T22:02:30.352Z,2.80
2022-10-05T22:05:43.353Z,1.47
2022-10-05T22:08:55.366Z,0.50
2022-10-05T22:12:22.476Z,1.00
2022-10-05T22:15:22.381Z,1.30
2022-10-05T22:18:47.367Z,1.40
2022-10-05T22:21:48.389Z,1.30
2022-10-05T22:25:00.420Z,1.17
2022-10-05T22:28:17.429Z,0.60
2022-10-05T22:31:41.437Z,0.70
2022-10-05T22:34:41.427Z,1.50
2022-10-05T22:37:53.466Z,0.60
2022-10-05T22:40:53.435Z,0.60
2022-10-05T22:44:19.586Z,0.50
2022-10-05T22:47:19.462Z,3.27
2022-10-05T22:50:32.539Z,2.90
2022-10-05T22:53:32.511Z,2.30
2022-10-05T22:56:45.522Z,1.00
2022-10-05T22:59:59.495Z,0.70
2022-10-05T23:03:23.536Z,1.87
2022-10-05T23:06:35.606Z,0.50
2022-10-05T23:09:47.552Z,1.87
2022-10-05T23:13:01.074Z,1.00
2022-10-05T23:16:25.588Z,1.15
2022-10-05T23:19:37.598Z,2.30
2022-10-05T23:23:02.587Z,1.77
2022-10-05T23:26:14.604Z,1.43
2022-10-05T23:29:26.753Z,1.17
2022-10-05T23:32:40.690Z,0.97
2022-10-05T23:35:52.810Z,2.85
2022-10-05T23:39:07.637Z,2.93
2022-10-05T23:42:19.641Z,1.43
2022-10-05T23:45:20.609Z,1.17
2022-10-05T23:48:46.749Z,1.33
2022-10-05T23:51:46.657Z,0.90
2022-10-05T23:54:58.820Z,1.25
2022-10-05T23:57:58.728Z,0.90
